Guide — WDE7328 — position and weather

sailwx.info

Track history (hours):
 
Tides and Currents Weather Stations Pressure Air Temp Water Temp Dewpoint Dewpoint Depression Visibility Wind Speed Wind Dir Waves Ship Positions

Guide

Owner: CROWLEY MARINE SERVICES INC, SEATTLE, WA. More information available from US FCC via Universal Licensing System and Coast Guard Vessel Documentation Center.

Last reported at 2014-Oct-24 16:33 UTC. Time now 2014-Oct-24 16:53 UTC.
Position N 47°15' W 122°26'.

Length 34 m; draft 5.1 m.

Type: Tug. MMSI: 366759530.

Date/timePositionNaut miles runAvg speedWind from/ knotsBaromVisibWave heightAir tempDewpointWater temp
2014-Oct-24 16:33N 47°15' W 122°26'0 0.0
2014-Oct-24 15:33N 47°15' W 122°26'0 0.0
2014-Oct-24 14:33N 47°15' W 122°26'0 0.0
2014-Oct-24 13:33N 47°15' W 122°26'0 0.0
2014-Oct-24 12:33N 47°15' W 122°26'2 2.1
2014-Oct-24 11:33N 47°15' W 122°23'1 1.2
2014-Oct-24 10:33N 47°16' W 122°24'1 0.7
2014-Oct-24 09:33N 47°16' W 122°23'2 1.9
2014-Oct-24 08:33N 47°15' W 122°26'0 0.0
2014-Oct-24 07:33N 47°15' W 122°26'0 0.0
2014-Oct-24 06:32N 47°15' W 122°26'0 0.0
2014-Oct-24 05:32N 47°15' W 122°26'0 0.0
2014-Oct-24 04:33N 47°15' W 122°26'0 0.0
2014-Oct-24 03:33N 47°15' W 122°26'0 0.0
2014-Oct-24 02:33N 47°15' W 122°26'0 0.0
2014-Oct-24 01:33N 47°15' W 122°26'0 0.0
2014-Oct-24 00:33N 47°15' W 122°26'2 1.5
2014-Oct-23 23:33N 47°16' W 122°24'1 1.1
2014-Oct-23 22:36N 47°16' W 122°23'0 3.3
2014-Oct-23 22:33N 47°16' W 122°23'3 2.4
2014-Oct-23 21:29N 47°18' W 122°26'0 0.0
2014-Oct-23 20:19N 47°18' W 122°26'0 0.0
2014-Oct-23 19:33N 47°18' W 122°26'0 0.0
2014-Oct-23 18:32N 47°18' W 122°26'1 3.4
2014-Oct-23 18:15N 47°18' W 122°27'6 9.1
2014-Oct-23 17:33N 47°23' W 122°22'710.1
2014-Oct-23 16:51N 47°30' W 122°24'3 9.6
2014-Oct-23 16:33N 47°33' W 122°25'0 9.2
2014-Oct-23 16:31N 47°33' W 122°25'4 3.7
2014-Oct-23 15:33N 47°35' W 122°21'0 0.0
2014-Oct-23 15:31N 47°35' W 122°21'0 0.0
2014-Oct-23 14:33N 47°35' W 122°21'0 0.0
2014-Oct-23 14:30N 47°35' W 122°21'0 0.0
2014-Oct-23 13:33N 47°35' W 122°21'0 0.0
2014-Oct-23 13:30N 47°35' W 122°21'1 0.6
2014-Oct-23 12:33N 47°36' W 122°22'110.0
2014-Oct-23 12:30N 47°36' W 122°22'9 9.6
2014-Oct-23 11:33N 47°27' W 122°24'8 9.4
2014-Oct-23 10:45N 47°20' W 122°26'210.3
2014-Oct-23 10:33N 47°18' W 122°26'3 2.8
2014-Oct-23 09:33N 47°16' W 122°23'3 3.2
2014-Oct-23 08:35N 47°18' W 122°27'0 1.6
2014-Oct-23 08:33N 47°18' W 122°27'2 1.9
2014-Oct-23 07:33N 47°16' W 122°25'0 0.1
2014-Oct-23 06:33N 47°17' W 122°24'2 1.5
2014-Oct-23 05:33N 47°18' W 122°26'0 0.0
2014-Oct-23 04:33N 47°18' W 122°26'0 0.0
2014-Oct-23 03:33N 47°18' W 122°26'2 1.6
2014-Oct-23 02:33N 47°16' W 122°24'1 0.8
2014-Oct-23 01:33N 47°17' W 122°25'1 0.8
2014-Oct-23 00:33N 47°16' W 122°24'0 0.1
2014-Oct-22 23:33N 47°16' W 122°24'1 0.9
2014-Oct-22 22:33N 47°16' W 122°23'2 1.9
2014-Oct-22 21:33N 47°15' W 122°26'0 0.0
2014-Oct-22 20:33N 47°15' W 122°26'0 0.0
2014-Oct-22 19:33N 47°15' W 122°26'0 0.0
2014-Oct-22 18:33N 47°15' W 122°26'0 0.0
2014-Oct-22 17:33N 47°15' W 122°26'1 1.1
2014-Oct-22 16:33N 47°16' W 122°25'0 0.0
2014-Oct-22 15:33N 47°16' W 122°25'0 0.0
2014-Oct-22 14:33N 47°16' W 122°25'1 1.5
2014-Oct-22 13:33N 47°16' W 122°23'1 0.5
2014-Oct-22 12:32N 47°16' W 122°24'1 1.4
2014-Oct-22 11:33N 47°17' W 122°25'1 0.5
2014-Oct-22 10:33N 47°16' W 122°25'2 1.5
2014-Oct-22 09:33N 47°15' W 122°26'0 0.0
2014-Oct-22 08:33N 47°15' W 122°26'0 0.0
2014-Oct-22 07:33N 47°15' W 122°26'0 0.0
2014-Oct-22 06:33N 47°15' W 122°26'0 0.0
2014-Oct-22 05:33N 47°15' W 122°26'0 0.0
2014-Oct-22 04:33N 47°15' W 122°26'0 0.0
2014-Oct-22 03:33N 47°15' W 122°26'0 0.0
2014-Oct-22 02:33N 47°15' W 122°26'0 0.0
2014-Oct-22 01:33N 47°15' W 122°26'0 0.0
2014-Oct-22 00:33N 47°15' W 122°26'1 1.1
2014-Oct-21 23:33N 47°16' W 122°25'1 1.1
2014-Oct-21 22:33N 47°15' W 122°26'0 0.0
2014-Oct-21 21:33N 47°15' W 122°26'0 0.0
2014-Oct-21 20:33N 47°15' W 122°26'0 0.0
2014-Oct-21 19:33N 47°15' W 122°26'0 0.0
2014-Oct-21 18:33N 47°15' W 122°26'0 0.0
2014-Oct-21 17:33N 47°15' W 122°26'0 0.0
2014-Oct-21 16:33N 47°15' W 122°26'0 0.0
2014-Oct-21 15:33N 47°15' W 122°26'0 0.0
2014-Oct-21 14:33N 47°15' W 122°26'0 0.0
2014-Oct-21 13:33N 47°15' W 122°26'1 1.2
2014-Oct-21 12:33N 47°17' W 122°26'0 0.4
2014-Oct-21 11:33N 47°17' W 122°26'1 4.8
2014-Oct-21 11:25N 47°17' W 122°26'2 2.4
2014-Oct-21 10:33N 47°15' W 122°26'0 0.0
2014-Oct-21 09:33N 47°15' W 122°26'0 0.0
2014-Oct-21 08:33N 47°15' W 122°26'0 0.0
2014-Oct-21 07:33N 47°15' W 122°26'0 0.0
2014-Oct-21 06:33N 47°15' W 122°26'0 0.0
2014-Oct-21 05:33N 47°15' W 122°26'0 0.0
2014-Oct-21 04:33N 47°15' W 122°26'0 0.0
2014-Oct-21 03:33N 47°15' W 122°26'2 1.6
2014-Oct-21 02:33N 47°17' W 122°25'1 1.2
2014-Oct-21 01:33N 47°16' W 122°23'0 0.2
2014-Oct-21 00:33N 47°16' W 122°24'1 0.6
2014-Oct-20 23:33N 47°16' W 122°23'1 1.2
2014-Oct-20 22:33N 47°16' W 122°24'1 1.1
2014-Oct-20 21:33N 47°16' W 122°23'0 0.0
2014-Oct-20 20:33N 47°16' W 122°23'0 0.1
2014-Oct-20 19:33N 47°16' W 122°23'3 2.8
2014-Oct-20 18:33N 47°18' W 122°26'1 0.9
2014-Oct-20 17:33N 47°17' W 122°25'2 2.4
2014-Oct-20 16:33N 47°15' W 122°23'0 0.4
2014-Oct-20 15:33N 47°16' W 122°23'0 0.0
2014-Oct-20 14:33N 47°16' W 122°23'0 0.3
2014-Oct-20 13:33N 47°16' W 122°23'2 1.7
2014-Oct-20 12:33N 47°17' W 122°25'1 0.7
2014-Oct-20 11:33N 47°18' W 122°26'1 0.8
2014-Oct-20 10:33N 47°17' W 122°25'2 1.6
2014-Oct-20 09:33N 47°16' W 122°23'0 0.1
2014-Oct-20 08:33N 47°16' W 122°23'0 0.1
2014-Oct-20 07:33N 47°16' W 122°23'0 0.0
2014-Oct-20 07:04N 47°16' W 122°23'0 0.0
2014-Oct-20 06:33N 47°16' W 122°23'0 0.0
2014-Oct-20 05:33N 47°16' W 122°23'0 0.0
2014-Oct-20 04:33N 47°16' W 122°23'0 0.0
2014-Oct-20 03:33N 47°16' W 122°23'0 0.0
2014-Oct-20 02:33N 47°16' W 122°23'0 0.1
2014-Oct-20 01:33N 47°16' W 122°23'2 2.0
2014-Oct-20 00:33N 47°17' W 122°25'1 1.1
2014-Oct-19 23:33N 47°16' W 122°24'1 0.7
2014-Oct-19 22:33N 47°16' W 122°25'1 1.0
2014-Oct-19 21:33N 47°17' W 122°26'2 1.7
2014-Oct-19 20:33N 47°15' W 122°26'0 0.0
2014-Oct-19 19:33N 47°15' W 122°26'0 0.0
2014-Oct-19 18:33N 47°15' W 122°26'0 0.0
2014-Oct-19 17:33N 47°15' W 122°26'0 0.0
2014-Oct-19 16:33N 47°15' W 122°26'0 0.0
2014-Oct-19 15:33N 47°15' W 122°26'0 0.0
2014-Oct-19 14:46N 47°15' W 122°26'0 0.0
2014-Oct-19 14:33N 47°15' W 122°26'0 0.0
2014-Oct-19 14:25N 47°15' W 122°26'0 0.0
2014-Oct-19 13:33N 47°15' W 122°26'1 1.1
2014-Oct-19 12:33N 47°16' W 122°25'1 1.6
2014-Oct-19 11:56N 47°17' W 122°26'0 1.2
2014-Oct-19 11:33N 47°18' W 122°26'2 2.0
2014-Oct-19 10:40N 47°16' W 122°24'0 2.7
2014-Oct-19 10:33N 47°16' W 122°24'1 1.4
2014-Oct-19 10:05N 47°16' W 122°23'0 0.0
2014-Oct-19 09:33N 47°16' W 122°23'2 4.7
2014-Oct-19 09:05N 47°16' W 122°26'1 2.2
2014-Oct-19 08:33N 47°15' W 122°26'0 0.0
2014-Oct-19 07:33N 47°15' W 122°26'0 0.0
2014-Oct-19 06:31N 47°15' W 122°26'0 0.0
2014-Oct-19 05:33N 47°15' W 122°26'0 0.0
2014-Oct-19 04:33N 47°15' W 122°26'0 0.0
2014-Oct-19 03:33N 47°15' W 122°26'0 0.0
2014-Oct-19 02:33N 47°15' W 122°26'0 0.0
2014-Oct-19 01:33N 47°15' W 122°26'0 0.0
2014-Oct-19 00:33N 47°15' W 122°26'2 1.6
2014-Oct-18 23:32N 47°16' W 122°24'1 1.1
2014-Oct-18 22:33N 47°17' W 122°26'0 0.4
2014-Oct-18 21:33N 47°17' W 122°26'2 1.9
2014-Oct-18 20:23N 47°15' W 122°26'0 0.0
2014-Oct-18 19:33N 47°15' W 122°26'0 0.0
2014-Oct-18 18:33N 47°15' W 122°26'0 0.0
2014-Oct-18 17:33N 47°15' W 122°26'2 1.6
2014-Oct-18 16:33N 47°17' W 122°25'1 1.4
2014-Oct-18 15:33N 47°16' W 122°24'1 0.7
2014-Oct-18 14:33N 47°16' W 122°24'1 0.9
2014-Oct-18 13:33N 47°16' W 122°23'3 2.5
2014-Oct-18 12:33N 47°18' W 122°26'2 2.2
2014-Oct-18 11:33N 47°15' W 122°26'0 0.0
2014-Oct-18 10:33N 47°15' W 122°26'0 0.0
2014-Oct-18 09:33N 47°15' W 122°26'0 0.0
2014-Oct-18 08:33N 47°15' W 122°26'0 0.0
2014-Oct-18 07:33N 47°15' W 122°26'0 0.0
2014-Oct-18 06:33N 47°15' W 122°26'0 0.0
2014-Oct-18 05:33N 47°15' W 122°26'0 0.0
2014-Oct-18 04:33N 47°15' W 122°26'0 0.0
2014-Oct-18 03:33N 47°15' W 122°26'0 0.0
2014-Oct-18 02:33N 47°15' W 122°26'0 0.0
2014-Oct-18 01:33N 47°15' W 122°26'0 0.0
2014-Oct-18 00:33N 47°15' W 122°26'0 0.0
2014-Oct-17 23:33N 47°15' W 122°26'0 0.0
2014-Oct-17 22:33N 47°15' W 122°26'2 1.7
2014-Oct-17 21:32N 47°16' W 122°24'0 0.4
2014-Oct-17 20:33N 47°16' W 122°24'2 1.8
2014-Oct-17 19:33N 47°18' W 122°26'0 0.0
2014-Oct-17 18:33N 47°18' W 122°26'0 0.0
2014-Oct-17 17:33N 47°18' W 122°26'0 0.0
2014-Oct-17 16:33N 47°18' W 122°26'0 0.0
2014-Oct-17 15:33N 47°18' W 122°26'0 0.0
2014-Oct-17 14:33N 47°18' W 122°26'2 2.5
2014-Oct-17 13:33N 47°16' W 122°23'1 1.2
2014-Oct-17 12:33N 47°17' W 122°25'1 1.5
2014-Oct-17 11:33N 47°16' W 122°23'2 1.5
2014-Oct-17 10:33N 47°17' W 122°25'1 1.1
2014-Oct-17 09:33N 47°17' W 122°26'2 1.7
2014-Oct-17 08:33N 47°16' W 122°24'0 0.0
2014-Oct-17 07:33N 47°16' W 122°24'0 0.0
2014-Oct-17 06:29N 47°16' W 122°24'0 0.0
2014-Oct-17 05:33N 47°16' W 122°24'0 0.0
2014-Oct-17 04:33N 47°16' W 122°24'0 0.0
2014-Oct-17 03:33N 47°16' W 122°24'0 0.0
2014-Oct-17 02:33N 47°16' W 122°24'1 1.0
2014-Oct-17 01:33N 47°16' W 122°23'0 0.0
2014-Oct-17 00:33N 47°16' W 122°23'2 0.7
2014-Oct-16 21:33N 47°15' W 122°26'0 0.0
2014-Oct-16 20:33N 47°15' W 122°26'0 0.0
2014-Oct-16 19:33N 47°15' W 122°26'0 0.0
2014-Oct-16 18:33N 47°15' W 122°26'0 0.0
2014-Oct-16 17:33N 47°15' W 122°26'0 0.0
2014-Oct-16 16:33N 47°15' W 122°26'0 0.0
2014-Oct-16 15:33N 47°15' W 122°26'2 1.8
2014-Oct-16 14:33N 47°16' W 122°23'1 0.7
2014-Oct-16 13:33N 47°16' W 122°24'2 1.6
2014-Oct-16 12:33N 47°18' W 122°26'0 0.0
2014-Oct-16 11:33N 47°18' W 122°26'0 0.0
2014-Oct-16 10:33N 47°18' W 122°26'2 1.5
2014-Oct-16 09:33N 47°16' W 122°24'2 2.7
2014-Oct-16 08:52N 47°17' W 122°27'0 1.5
2014-Oct-16 08:33N 47°18' W 122°26'2 1.5
2014-Oct-16 07:33N 47°16' W 122°25'1 1.4
2014-Oct-16 06:33N 47°18' W 122°26'0 0.0
2014-Oct-16 05:33N 47°18' W 122°26'0 0.0
2014-Oct-16 04:33N 47°18' W 122°26'0 0.0
2014-Oct-16 03:33N 47°18' W 122°26'0 0.0
2014-Oct-16 02:33N 47°18' W 122°26'2 2.0
2014-Oct-16 01:33N 47°16' W 122°24'1 0.9
2014-Oct-16 00:33N 47°16' W 122°23'2 2.1
2014-Oct-15 23:33N 47°15' W 122°26'0 0.0
2014-Oct-15 22:33N 47°15' W 122°26'0 0.0
2014-Oct-15 21:33N 47°15' W 122°26'0 0.0
2014-Oct-15 20:33N 47°15' W 122°26'0 0.0
2014-Oct-15 19:33N 47°15' W 122°26'0 0.0
2014-Oct-15 18:33N 47°15' W 122°26'0 0.0
2014-Oct-15 17:33N 47°15' W 122°26'0 0.0
2014-Oct-15 16:33N 47°15' W 122°26'0 0.0
2014-Oct-15 15:33N 47°15' W 122°26'0 0.0
2014-Oct-15 14:33N 47°15' W 122°26'0 0.0
2014-Oct-15 13:33N 47°15' W 122°26'0 0.0
2014-Oct-15 12:33N 47°15' W 122°26'2 2.1
2014-Oct-15 11:33N 47°16' W 122°23'1 1.1
2014-Oct-15 10:54N 47°16' W 122°24'1 2.9
2014-Oct-15 10:33N 47°17' W 122°25'1 1.3
2014-Oct-15 09:33N 47°18' W 122°26'0 0.0
2014-Oct-15 08:33N 47°18' W 122°26'0 0.0
2014-Oct-15 07:33N 47°18' W 122°26'0 0.0
2014-Oct-15 06:33N 47°18' W 122°26'0 0.0
2014-Oct-15 05:33N 47°18' W 122°26'2 1.9
2014-Oct-15 04:33N 47°16' W 122°27'0 0.0
2014-Oct-15 04:33N 47°16' W 122°27'1 0.7
2014-Oct-15 03:33N 47°17' W 122°27'1 0.5
2014-Oct-15 02:33N 47°16' W 122°27'2 1.5
2014-Oct-15 01:33N 47°16' W 122°24'0 0.0
2014-Oct-15 00:33N 47°16' W 122°24'0 0.0
2014-Oct-14 23:33N 47°16' W 122°24'0 0.2
2014-Oct-14 22:33N 47°16' W 122°24'0 0.5
2014-Oct-14 21:33N 47°17' W 122°25'0 0.3
2014-Oct-14 20:33N 47°16' W 122°24'1 0.8
2014-Oct-14 19:33N 47°16' W 122°23'2 2.5
2014-Oct-14 18:33N 47°18' W 122°26'0 0.0
2014-Oct-14 17:33N 47°18' W 122°26'2 2.5
2014-Oct-14 16:33N 47°15' W 122°26'  
Track history (hours):
 
Tides and Currents Weather Stations Pressure Air Temp Water Temp Dewpoint Dewpoint Depression Visibility Wind Speed Wind Dir Waves Ship Positions

Guide

Owner: CROWLEY MARINE SERVICES INC, SEATTLE, WA. More information available from US FCC via Universal Licensing System and Coast Guard Vessel Documentation Center.

Last reported at 2014-Oct-24 16:33 UTC. Time now 2014-Oct-24 16:53 UTC.
Position N 47°15' W 122°26'.

Length 34 m; draft 5.1 m.

Type: Tug. MMSI: 366759530.

Date/timePositionNaut miles runAvg speedWind from/ knotsBaromVisibWave heightAir tempDewpointWater temp
2014-Oct-24 16:33N 47°15' W 122°26'0 0.0
2014-Oct-24 15:33N 47°15' W 122°26'0 0.0
2014-Oct-24 14:33N 47°15' W 122°26'0 0.0
2014-Oct-24 13:33N 47°15' W 122°26'0 0.0
2014-Oct-24 12:33N 47°15' W 122°26'2 2.1
2014-Oct-24 11:33N 47°15' W 122°23'1 1.2
2014-Oct-24 10:33N 47°16' W 122°24'1 0.7
2014-Oct-24 09:33N 47°16' W 122°23'2 1.9
2014-Oct-24 08:33N 47°15' W 122°26'0 0.0
2014-Oct-24 07:33N 47°15' W 122°26'0 0.0
2014-Oct-24 06:32N 47°15' W 122°26'0 0.0
2014-Oct-24 05:32N 47°15' W 122°26'0 0.0
2014-Oct-24 04:33N 47°15' W 122°26'0 0.0
2014-Oct-24 03:33N 47°15' W 122°26'0 0.0
2014-Oct-24 02:33N 47°15' W 122°26'0 0.0
2014-Oct-24 01:33N 47°15' W 122°26'0 0.0
2014-Oct-24 00:33N 47°15' W 122°26'2 1.5
2014-Oct-23 23:33N 47°16' W 122°24'1 1.1
2014-Oct-23 22:36N 47°16' W 122°23'0 3.3
2014-Oct-23 22:33N 47°16' W 122°23'3 2.4
2014-Oct-23 21:29N 47°18' W 122°26'0 0.0
2014-Oct-23 20:19N 47°18' W 122°26'0 0.0
2014-Oct-23 19:33N 47°18' W 122°26'0 0.0
2014-Oct-23 18:32N 47°18' W 122°26'1 3.4
2014-Oct-23 18:15N 47°18' W 122°27'6 9.1
2014-Oct-23 17:33N 47°23' W 122°22'710.1
2014-Oct-23 16:51N 47°30' W 122°24'3 9.6
2014-Oct-23 16:33N 47°33' W 122°25'0 9.2
2014-Oct-23 16:31N 47°33' W 122°25'4 3.7
2014-Oct-23 15:33N 47°35' W 122°21'0 0.0
2014-Oct-23 15:31N 47°35' W 122°21'0 0.0
2014-Oct-23 14:33N 47°35' W 122°21'0 0.0
2014-Oct-23 14:30N 47°35' W 122°21'0 0.0
2014-Oct-23 13:33N 47°35' W 122°21'0 0.0
2014-Oct-23 13:30N 47°35' W 122°21'1 0.6
2014-Oct-23 12:33N 47°36' W 122°22'110.0
2014-Oct-23 12:30N 47°36' W 122°22'9 9.6
2014-Oct-23 11:33N 47°27' W 122°24'8 9.4
2014-Oct-23 10:45N 47°20' W 122°26'210.3
2014-Oct-23 10:33N 47°18' W 122°26'3 2.8
2014-Oct-23 09:33N 47°16' W 122°23'3 3.2
2014-Oct-23 08:35N 47°18' W 122°27'0 1.6
2014-Oct-23 08:33N 47°18' W 122°27'2 1.9
2014-Oct-23 07:33N 47°16' W 122°25'0 0.1
2014-Oct-23 06:33N 47°17' W 122°24'2 1.5
2014-Oct-23 05:33N 47°18' W 122°26'0 0.0
2014-Oct-23 04:33N 47°18' W 122°26'0 0.0
2014-Oct-23 03:33N 47°18' W 122°26'2 1.6
2014-Oct-23 02:33N 47°16' W 122°24'1 0.8
2014-Oct-23 01:33N 47°17' W 122°25'1 0.8
2014-Oct-23 00:33N 47°16' W 122°24'0 0.1
2014-Oct-22 23:33N 47°16' W 122°24'1 0.9
2014-Oct-22 22:33N 47°16' W 122°23'2 1.9
2014-Oct-22 21:33N 47°15' W 122°26'0 0.0
2014-Oct-22 20:33N 47°15' W 122°26'0 0.0
2014-Oct-22 19:33N 47°15' W 122°26'0 0.0
2014-Oct-22 18:33N 47°15' W 122°26'0 0.0
2014-Oct-22 17:33N 47°15' W 122°26'1 1.1
2014-Oct-22 16:33N 47°16' W 122°25'0 0.0
2014-Oct-22 15:33N 47°16' W 122°25'0 0.0
2014-Oct-22 14:33N 47°16' W 122°25'1 1.5
2014-Oct-22 13:33N 47°16' W 122°23'1 0.5
2014-Oct-22 12:32N 47°16' W 122°24'1 1.4
2014-Oct-22 11:33N 47°17' W 122°25'1 0.5
2014-Oct-22 10:33N 47°16' W 122°25'2 1.5
2014-Oct-22 09:33N 47°15' W 122°26'0 0.0
2014-Oct-22 08:33N 47°15' W 122°26'0 0.0
2014-Oct-22 07:33N 47°15' W 122°26'0 0.0
2014-Oct-22 06:33N 47°15' W 122°26'0 0.0
2014-Oct-22 05:33N 47°15' W 122°26'0 0.0
2014-Oct-22 04:33N 47°15' W 122°26'0 0.0
2014-Oct-22 03:33N 47°15' W 122°26'0 0.0
2014-Oct-22 02:33N 47°15' W 122°26'0 0.0
2014-Oct-22 01:33N 47°15' W 122°26'0 0.0
2014-Oct-22 00:33N 47°15' W 122°26'1 1.1
2014-Oct-21 23:33N 47°16' W 122°25'1 1.1
2014-Oct-21 22:33N 47°15' W 122°26'0 0.0
2014-Oct-21 21:33N 47°15' W 122°26'0 0.0
2014-Oct-21 20:33N 47°15' W 122°26'0 0.0
2014-Oct-21 19:33N 47°15' W 122°26'0 0.0
2014-Oct-21 18:33N 47°15' W 122°26'0 0.0
2014-Oct-21 17:33N 47°15' W 122°26'0 0.0
2014-Oct-21 16:33N 47°15' W 122°26'0 0.0
2014-Oct-21 15:33N 47°15' W 122°26'0 0.0
2014-Oct-21 14:33N 47°15' W 122°26'0 0.0
2014-Oct-21 13:33N 47°15' W 122°26'1 1.2
2014-Oct-21 12:33N 47°17' W 122°26'0 0.4
2014-Oct-21 11:33N 47°17' W 122°26'1 4.8
2014-Oct-21 11:25N 47°17' W 122°26'2 2.4
2014-Oct-21 10:33N 47°15' W 122°26'0 0.0
2014-Oct-21 09:33N 47°15' W 122°26'0 0.0
2014-Oct-21 08:33N 47°15' W 122°26'0 0.0
2014-Oct-21 07:33N 47°15' W 122°26'0 0.0
2014-Oct-21 06:33N 47°15' W 122°26'0 0.0
2014-Oct-21 05:33N 47°15' W 122°26'0 0.0
2014-Oct-21 04:33N 47°15' W 122°26'0 0.0
2014-Oct-21 03:33N 47°15' W 122°26'2 1.6
2014-Oct-21 02:33N 47°17' W 122°25'1 1.2
2014-Oct-21 01:33N 47°16' W 122°23'0 0.2
2014-Oct-21 00:33N 47°16' W 122°24'1 0.6
2014-Oct-20 23:33N 47°16' W 122°23'1 1.2
2014-Oct-20 22:33N 47°16' W 122°24'1 1.1
2014-Oct-20 21:33N 47°16' W 122°23'0 0.0
2014-Oct-20 20:33N 47°16' W 122°23'0 0.1
2014-Oct-20 19:33N 47°16' W 122°23'3 2.8
2014-Oct-20 18:33N 47°18' W 122°26'1 0.9
2014-Oct-20 17:33N 47°17' W 122°25'2 2.4
2014-Oct-20 16:33N 47°15' W 122°23'0 0.4
2014-Oct-20 15:33N 47°16' W 122°23'0 0.0
2014-Oct-20 14:33N 47°16' W 122°23'0 0.3
2014-Oct-20 13:33N 47°16' W 122°23'2 1.7
2014-Oct-20 12:33N 47°17' W 122°25'1 0.7
2014-Oct-20 11:33N 47°18' W 122°26'1 0.8
2014-Oct-20 10:33N 47°17' W 122°25'2 1.6
2014-Oct-20 09:33N 47°16' W 122°23'0 0.1
2014-Oct-20 08:33N 47°16' W 122°23'0 0.1
2014-Oct-20 07:33N 47°16' W 122°23'0 0.0
2014-Oct-20 07:04N 47°16' W 122°23'0 0.0
2014-Oct-20 06:33N 47°16' W 122°23'0 0.0
2014-Oct-20 05:33N 47°16' W 122°23'0 0.0
2014-Oct-20 04:33N 47°16' W 122°23'0 0.0
2014-Oct-20 03:33N 47°16' W 122°23'0 0.0
2014-Oct-20 02:33N 47°16' W 122°23'0 0.1
2014-Oct-20 01:33N 47°16' W 122°23'2 2.0
2014-Oct-20 00:33N 47°17' W 122°25'1 1.1
2014-Oct-19 23:33N 47°16' W 122°24'1 0.7
2014-Oct-19 22:33N 47°16' W 122°25'1 1.0
2014-Oct-19 21:33N 47°17' W 122°26'2 1.7
2014-Oct-19 20:33N 47°15' W 122°26'0 0.0
2014-Oct-19 19:33N 47°15' W 122°26'0 0.0
2014-Oct-19 18:33N 47°15' W 122°26'0 0.0
2014-Oct-19 17:33N 47°15' W 122°26'0 0.0
2014-Oct-19 16:33N 47°15' W 122°26'0 0.0
2014-Oct-19 15:33N 47°15' W 122°26'0 0.0
2014-Oct-19 14:46N 47°15' W 122°26'0 0.0
2014-Oct-19 14:33N 47°15' W 122°26'0 0.0
2014-Oct-19 14:25N 47°15' W 122°26'0 0.0
2014-Oct-19 13:33N 47°15' W 122°26'1 1.1
2014-Oct-19 12:33N 47°16' W 122°25'1 1.6
2014-Oct-19 11:56N 47°17' W 122°26'0 1.2
2014-Oct-19 11:33N 47°18' W 122°26'2 2.0
2014-Oct-19 10:40N 47°16' W 122°24'0 2.7
2014-Oct-19 10:33N 47°16' W 122°24'1 1.4
2014-Oct-19 10:05N 47°16' W 122°23'0 0.0
2014-Oct-19 09:33N 47°16' W 122°23'2 4.7
2014-Oct-19 09:05N 47°16' W 122°26'1 2.2
2014-Oct-19 08:33N 47°15' W 122°26'0 0.0
2014-Oct-19 07:33N 47°15' W 122°26'0 0.0
2014-Oct-19 06:31N 47°15' W 122°26'0 0.0
2014-Oct-19 05:33N 47°15' W 122°26'0 0.0
2014-Oct-19 04:33N 47°15' W 122°26'0 0.0
2014-Oct-19 03:33N 47°15' W 122°26'0 0.0
2014-Oct-19 02:33N 47°15' W 122°26'0 0.0
2014-Oct-19 01:33N 47°15' W 122°26'0 0.0
2014-Oct-19 00:33N 47°15' W 122°26'2 1.6
2014-Oct-18 23:32N 47°16' W 122°24'1 1.1
2014-Oct-18 22:33N 47°17' W 122°26'0 0.4
2014-Oct-18 21:33N 47°17' W 122°26'2 1.9
2014-Oct-18 20:23N 47°15' W 122°26'0 0.0
2014-Oct-18 19:33N 47°15' W 122°26'0 0.0
2014-Oct-18 18:33N 47°15' W 122°26'0 0.0
2014-Oct-18 17:33N 47°15' W 122°26'2 1.6
2014-Oct-18 16:33N 47°17' W 122°25'1 1.4
2014-Oct-18 15:33N 47°16' W 122°24'1 0.7
2014-Oct-18 14:33N 47°16' W 122°24'1 0.9
2014-Oct-18 13:33N 47°16' W 122°23'3 2.5
2014-Oct-18 12:33N 47°18' W 122°26'2 2.2
2014-Oct-18 11:33N 47°15' W 122°26'0 0.0
2014-Oct-18 10:33N 47°15' W 122°26'0 0.0
2014-Oct-18 09:33N 47°15' W 122°26'0 0.0
2014-Oct-18 08:33N 47°15' W 122°26'0 0.0
2014-Oct-18 07:33N 47°15' W 122°26'0 0.0
2014-Oct-18 06:33N 47°15' W 122°26'0 0.0
2014-Oct-18 05:33N 47°15' W 122°26'0 0.0
2014-Oct-18 04:33N 47°15' W 122°26'0 0.0
2014-Oct-18 03:33N 47°15' W 122°26'0 0.0
2014-Oct-18 02:33N 47°15' W 122°26'0 0.0
2014-Oct-18 01:33N 47°15' W 122°26'0 0.0
2014-Oct-18 00:33N 47°15' W 122°26'0 0.0
2014-Oct-17 23:33N 47°15' W 122°26'0 0.0
2014-Oct-17 22:33N 47°15' W 122°26'2 1.7
2014-Oct-17 21:32N 47°16' W 122°24'0 0.4
2014-Oct-17 20:33N 47°16' W 122°24'2 1.8
2014-Oct-17 19:33N 47°18' W 122°26'0 0.0
2014-Oct-17 18:33N 47°18' W 122°26'0 0.0
2014-Oct-17 17:33N 47°18' W 122°26'0 0.0
2014-Oct-17 16:33N 47°18' W 122°26'0 0.0
2014-Oct-17 15:33N 47°18' W 122°26'0 0.0
2014-Oct-17 14:33N 47°18' W 122°26'2 2.5
2014-Oct-17 13:33N 47°16' W 122°23'1 1.2
2014-Oct-17 12:33N 47°17' W 122°25'1 1.5
2014-Oct-17 11:33N 47°16' W 122°23'2 1.5
2014-Oct-17 10:33N 47°17' W 122°25'1 1.1
2014-Oct-17 09:33N 47°17' W 122°26'2 1.7
2014-Oct-17 08:33N 47°16' W 122°24'0 0.0
2014-Oct-17 07:33N 47°16' W 122°24'0 0.0
2014-Oct-17 06:29N 47°16' W 122°24'0 0.0
2014-Oct-17 05:33N 47°16' W 122°24'0 0.0
2014-Oct-17 04:33N 47°16' W 122°24'0 0.0
2014-Oct-17 03:33N 47°16' W 122°24'0 0.0
2014-Oct-17 02:33N 47°16' W 122°24'1 1.0
2014-Oct-17 01:33N 47°16' W 122°23'0 0.0
2014-Oct-17 00:33N 47°16' W 122°23'2 0.7
2014-Oct-16 21:33N 47°15' W 122°26'0 0.0
2014-Oct-16 20:33N 47°15' W 122°26'0 0.0
2014-Oct-16 19:33N 47°15' W 122°26'0 0.0
2014-Oct-16 18:33N 47°15' W 122°26'0 0.0
2014-Oct-16 17:33N 47°15' W 122°26'0 0.0
2014-Oct-16 16:33N 47°15' W 122°26'0 0.0
2014-Oct-16 15:33N 47°15' W 122°26'2 1.8
2014-Oct-16 14:33N 47°16' W 122°23'1 0.7
2014-Oct-16 13:33N 47°16' W 122°24'2 1.6
2014-Oct-16 12:33N 47°18' W 122°26'0 0.0
2014-Oct-16 11:33N 47°18' W 122°26'0 0.0
2014-Oct-16 10:33N 47°18' W 122°26'2 1.5
2014-Oct-16 09:33N 47°16' W 122°24'2 2.7
2014-Oct-16 08:52N 47°17' W 122°27'0 1.5
2014-Oct-16 08:33N 47°18' W 122°26'2 1.5
2014-Oct-16 07:33N 47°16' W 122°25'1 1.4
2014-Oct-16 06:33N 47°18' W 122°26'0 0.0
2014-Oct-16 05:33N 47°18' W 122°26'0 0.0
2014-Oct-16 04:33N 47°18' W 122°26'0 0.0
2014-Oct-16 03:33N 47°18' W 122°26'0 0.0
2014-Oct-16 02:33N 47°18' W 122°26'2 2.0
2014-Oct-16 01:33N 47°16' W 122°24'1 0.9
2014-Oct-16 00:33N 47°16' W 122°23'2 2.1
2014-Oct-15 23:33N 47°15' W 122°26'0 0.0
2014-Oct-15 22:33N 47°15' W 122°26'0 0.0
2014-Oct-15 21:33N 47°15' W 122°26'0 0.0
2014-Oct-15 20:33N 47°15' W 122°26'0 0.0
2014-Oct-15 19:33N 47°15' W 122°26'0 0.0
2014-Oct-15 18:33N 47°15' W 122°26'0 0.0
2014-Oct-15 17:33N 47°15' W 122°26'0 0.0
2014-Oct-15 16:33N 47°15' W 122°26'0 0.0
2014-Oct-15 15:33N 47°15' W 122°26'0 0.0
2014-Oct-15 14:33N 47°15' W 122°26'0 0.0
2014-Oct-15 13:33N 47°15' W 122°26'0 0.0
2014-Oct-15 12:33N 47°15' W 122°26'2 2.1
2014-Oct-15 11:33N 47°16' W 122°23'1 1.1
2014-Oct-15 10:54N 47°16' W 122°24'1 2.9
2014-Oct-15 10:33N 47°17' W 122°25'1 1.3
2014-Oct-15 09:33N 47°18' W 122°26'0 0.0
2014-Oct-15 08:33N 47°18' W 122°26'0 0.0
2014-Oct-15 07:33N 47°18' W 122°26'0 0.0
2014-Oct-15 06:33N 47°18' W 122°26'0 0.0
2014-Oct-15 05:33N 47°18' W 122°26'2 1.9
2014-Oct-15 04:33N 47°16' W 122°27'0 0.0
2014-Oct-15 04:33N 47°16' W 122°27'1 0.7
2014-Oct-15 03:33N 47°17' W 122°27'1 0.5
2014-Oct-15 02:33N 47°16' W 122°27'2 1.5
2014-Oct-15 01:33N 47°16' W 122°24'0 0.0
2014-Oct-15 00:33N 47°16' W 122°24'0 0.0
2014-Oct-14 23:33N 47°16' W 122°24'0 0.2
2014-Oct-14 22:33N 47°16' W 122°24'0 0.5
2014-Oct-14 21:33N 47°17' W 122°25'0 0.3
2014-Oct-14 20:33N 47°16' W 122°24'1 0.8
2014-Oct-14 19:33N 47°16' W 122°23'2 2.5
2014-Oct-14 18:33N 47°18' W 122°26'0 0.0
2014-Oct-14 17:33N 47°18' W 122°26'2 2.5
2014-Oct-14 16:33N 47°15' W 122°26'  

Dump ship's entire track history